createdAt,value
2023-04-26T00:01:31.090Z,1.42
2023-04-26T00:03:58.346Z,2.80
2023-04-26T00:06:27.430Z,2.17
2023-04-26T00:08:54.995Z,2.47
2023-04-26T00:11:23.047Z,2.80
2023-04-26T00:13:49.893Z,1.40
2023-04-26T00:16:16.808Z,2.65
2023-04-26T00:18:43.465Z,2.85
2023-04-26T00:21:10.481Z,1.77
2023-04-26T00:23:37.067Z,3.33
2023-04-26T00:26:04.390Z,3.20
2023-04-26T00:28:31.509Z,1.92
2023-04-26T00:30:58.317Z,2.50
2023-04-26T00:33:26.073Z,2.38
2023-04-26T00:35:52.899Z,1.45
2023-04-26T00:38:19.704Z,3.13
2023-04-26T00:40:46.469Z,1.75
2023-04-26T00:43:13.214Z,1.25
2023-04-26T00:45:39.972Z,2.92
2023-04-26T00:48:06.816Z,2.45
2023-04-26T00:50:34.199Z,1.77
2023-04-26T00:53:03.786Z,1.15
2023-04-26T00:55:30.525Z,2.58
2023-04-26T00:57:57.826Z,1.40
2023-04-26T01:00:24.566Z,1.70
2023-04-26T01:02:52.220Z,2.42
2023-04-26T01:05:19.422Z,2.42
2023-04-26T01:07:46.496Z,1.48
2023-04-26T01:10:13.323Z,1.23
2023-04-26T01:12:43.224Z,1.17
2023-04-26T01:15:11.362Z,2.20
2023-04-26T01:17:38.435Z,1.77
2023-04-26T01:20:06.076Z,1.42
2023-04-26T01:22:34.442Z,1.95
2023-04-26T01:25:04.348Z,2.40
2023-04-26T01:27:32.852Z,1.60
2023-04-26T01:29:59.575Z,2.00
2023-04-26T01:32:26.339Z,1.25
2023-04-26T01:34:53.101Z,2.30
2023-04-26T01:37:19.693Z,1.50
2023-04-26T01:39:46.638Z,5.80
2023-04-26T01:42:13.407Z,2.92
2023-04-26T01:44:40.476Z,1.38
2023-04-26T01:47:07.341Z,2.15
2023-04-26T01:49:34.440Z,1.80
2023-04-26T01:52:01.371Z,1.77
2023-04-26T01:54:28.051Z,1.95
2023-04-26T01:56:54.666Z,2.35
2023-04-26T01:59:21.458Z,2.03
2023-04-26T02:01:48.235Z,1.70
2023-04-26T02:04:14.956Z,2.25
2023-04-26T02:06:42.377Z,1.60
2023-04-26T02:09:12.211Z,2.20
2023-04-26T02:11:41.276Z,2.00
2023-04-26T02:14:08.094Z,1.83
2023-04-26T02:16:35.248Z,2.30
2023-04-26T02:19:03.463Z,1.85
2023-04-26T02:21:30.662Z,1.00
2023-04-26T02:23:57.588Z,2.22
2023-04-26T02:26:24.352Z,1.38
2023-04-26T02:28:51.322Z,2.13
2023-04-26T02:31:18.214Z,1.45
2023-04-26T02:33:45.030Z,2.35
2023-04-26T02:36:12.510Z,1.92
2023-04-26T02:38:39.490Z,1.20
2023-04-26T02:41:06.647Z,2.13
2023-04-26T02:43:33.749Z,2.22
2023-04-26T02:46:01.403Z,1.33
2023-04-26T02:48:29.093Z,1.83
2023-04-26T02:50:57.227Z,1.58
2023-04-26T02:53:24.392Z,1.83
2023-04-26T02:55:51.404Z,1.30
2023-04-26T02:58:18.476Z,1.88
2023-04-26T03:00:47.663Z,1.33
2023-04-26T03:03:15.558Z,1.83
2023-04-26T03:05:42.815Z,1.17
2023-04-26T03:08:12.570Z,1.92
2023-04-26T03:10:39.210Z,1.73
2023-04-26T03:13:06.004Z,1.50
2023-04-26T03:15:32.830Z,1.63
2023-04-26T03:17:59.557Z,2.05
2023-04-26T03:20:27.261Z,1.75
2023-04-26T03:22:55.027Z,2.03
2023-04-26T03:25:22.167Z,2.33
2023-04-26T03:27:48.811Z,1.73
2023-04-26T03:30:15.959Z,1.92
2023-04-26T03:32:44.572Z,1.20
2023-04-26T03:35:12.037Z,1.52
2023-04-26T03:37:42.970Z,1.20
2023-04-26T03:40:12.868Z,1.42
2023-04-26T03:42:39.874Z,1.70
2023-04-26T03:45:07.321Z,1.55
2023-04-26T03:47:35.343Z,1.50
2023-04-26T03:50:02.400Z,1.67
2023-04-26T03:52:30.025Z,1.55
2023-04-26T03:54:56.930Z,1.58
2023-04-26T03:57:23.488Z,1.55
2023-04-26T03:59:50.661Z,2.03
2023-04-26T04:02:17.576Z,1.00
2023-04-26T04:04:44.841Z,1.85
2023-04-26T04:07:11.908Z,1.50
2023-04-26T04:09:39.092Z,1.48
2023-04-26T04:12:05.987Z,1.40
2023-04-26T04:14:33.114Z,1.85
2023-04-26T04:16:59.939Z,1.73
2023-04-26T04:19:28.589Z,1.53
2023-04-26T04:21:56.311Z,2.30
2023-04-26T04:24:24.186Z,1.88
2023-04-26T04:26:51.874Z,2.00
2023-04-26T04:29:18.809Z,1.85
2023-04-26T04:31:46.132Z,2.75
2023-04-26T04:34:13.140Z,1.65
2023-04-26T04:36:41.754Z,1.30
2023-04-26T04:39:13.471Z,2.03
2023-04-26T04:41:47.509Z,1.85
2023-04-26T04:44:18.609Z,2.30
2023-04-26T04:46:45.568Z,2.28
2023-04-26T04:49:12.941Z,3.13
2023-04-26T04:51:39.895Z,3.72
2023-04-26T04:54:14.304Z,2.08
2023-04-26T04:56:42.115Z,3.08
2023-04-26T04:59:11.012Z,1.48
2023-04-26T05:01:38.773Z,3.25
2023-04-26T05:04:10.062Z,2.75
2023-04-26T05:06:37.605Z,3.88
2023-04-26T05:09:05.935Z,1.63
2023-04-26T05:11:33.210Z,1.85
2023-04-26T05:14:01.671Z,2.15
2023-04-26T05:16:29.260Z,2.08
2023-04-26T05:18:56.492Z,2.90
2023-04-26T05:21:24.084Z,2.25
2023-04-26T05:23:51.260Z,1.85
2023-04-26T05:26:18.600Z,1.63
2023-04-26T05:28:45.856Z,3.53
2023-04-26T05:31:29.855Z,3.95
2023-04-26T05:34:08.451Z,1.95
2023-04-26T05:36:39.751Z,2.70
2023-04-26T05:39:07.660Z,2.08
2023-04-26T05:41:34.355Z,2.08
2023-04-26T05:44:01.253Z,2.13
2023-04-26T05:46:28.219Z,2.97
2023-04-26T05:48:55.287Z,1.40
2023-04-26T05:51:22.012Z,2.40
2023-04-26T05:53:48.682Z,2.80
2023-04-26T05:56:16.720Z,1.33
2023-04-26T05:58:44.742Z,1.33
2023-04-26T06:01:12.386Z,3.30
2023-04-26T06:03:39.431Z,2.10
2023-04-26T06:06:08.006Z,1.50
2023-04-26T06:08:35.540Z,2.60
2023-04-26T06:11:02.416Z,2.20
2023-04-26T06:13:29.072Z,2.72
2023-04-26T06:15:55.905Z,1.60
2023-04-26T06:18:22.682Z,1.95
2023-04-26T06:20:49.420Z,2.75
2023-04-26T06:23:16.137Z,2.08
2023-04-26T06:25:45.634Z,3.22
2023-04-26T06:28:13.327Z,1.67
2023-04-26T06:30:40.187Z,2.10
2023-04-26T06:33:07.765Z,2.92
2023-04-26T06:35:41.994Z,2.78
2023-04-26T06:38:10.099Z,2.53
2023-04-26T06:40:37.289Z,2.92
2023-04-26T06:43:04.238Z,2.75
2023-04-26T06:45:49.593Z,2.20
2023-04-26T06:48:19.492Z,2.90
2023-04-26T06:50:46.374Z,2.92
2023-04-26T06:53:14.126Z,4.10
2023-04-26T06:55:40.925Z,2.35
2023-04-26T06:58:07.735Z,4.80
2023-04-26T07:00:34.530Z,2.80
2023-04-26T07:03:01.573Z,3.55
2023-04-26T07:05:28.703Z,3.08
2023-04-26T07:07:55.417Z,4.07
2023-04-26T07:10:22.308Z,2.28
2023-04-26T07:12:49.107Z,2.78
2023-04-26T07:15:15.999Z,2.95
2023-04-26T07:17:43.017Z,2.40
2023-04-26T07:20:10.413Z,2.88
2023-04-26T07:22:37.198Z,1.98
2023-04-26T07:25:05.011Z,3.83
2023-04-26T07:27:31.996Z,2.75
2023-04-26T07:29:59.393Z,2.38
2023-04-26T07:32:26.097Z,2.20
2023-04-26T07:34:53.023Z,2.15
2023-04-26T07:37:19.761Z,1.88
2023-04-26T07:39:46.661Z,1.92
2023-04-26T07:42:13.286Z,3.03
2023-04-26T07:44:39.894Z,3.25
2023-04-26T07:47:13.124Z,1.98
2023-04-26T07:49:39.853Z,2.45
2023-04-26T07:52:07.969Z,3.08
2023-04-26T07:54:35.364Z,3.08
2023-04-26T07:57:02.010Z,2.05
2023-04-26T07:59:28.669Z,3.10
2023-04-26T08:01:55.304Z,2.08
2023-04-26T08:04:32.717Z,2.45
2023-04-26T08:07:01.599Z,2.85
2023-04-26T08:09:29.393Z,2.67
2023-04-26T08:11:56.939Z,2.63
2023-04-26T08:14:23.647Z,3.63
2023-04-26T08:16:51.674Z,2.00
2023-04-26T08:19:18.447Z,3.75
2023-04-26T08:21:45.158Z,4.32
2023-04-26T08:24:11.814Z,4.53
2023-04-26T08:26:38.774Z,1.58
2023-04-26T08:29:05.357Z,2.55
2023-04-26T08:31:32.290Z,1.48
2023-04-26T08:33:59.044Z,2.90
2023-04-26T08:36:26.353Z,2.50
2023-04-26T08:38:53.029Z,2.65
2023-04-26T08:41:23.005Z,2.65
2023-04-26T08:43:50.137Z,3.83
2023-04-26T08:46:20.074Z,2.55
2023-04-26T08:48:58.575Z,4.68
2023-04-26T08:51:27.329Z,5.03
2023-04-26T08:53:55.898Z,3.47
2023-04-26T08:56:24.182Z,2.43
2023-04-26T08:58:52.013Z,2.83
2023-04-26T09:01:21.832Z,3.45
2023-04-26T09:03:48.903Z,4.47
2023-04-26T09:06:16.563Z,2.45
2023-04-26T09:08:44.720Z,3.70
2023-04-26T09:11:11.524Z,3.22
2023-04-26T09:13:38.191Z,2.72
2023-04-26T09:16:05.314Z,3.35
2023-04-26T09:18:34.031Z,3.20
2023-04-26T09:21:08.566Z,2.55
2023-04-26T09:23:35.724Z,3.22
2023-04-26T09:26:18.467Z,2.85
2023-04-26T09:28:46.556Z,2.58
2023-04-26T09:31:43.199Z,2.83
2023-04-26T09:34:12.223Z,4.53
2023-04-26T09:36:54.851Z,3.15
2023-04-26T09:39:37.478Z,4.15
2023-04-26T09:42:05.153Z,3.03
2023-04-26T09:44:32.475Z,2.97
2023-04-26T09:47:02.297Z,2.83
2023-04-26T09:49:33.431Z,1.95
2023-04-26T09:52:09.197Z,1.85
2023-04-26T09:54:43.304Z,2.83
2023-04-26T09:57:12.046Z,2.38
2023-04-26T09:59:49.862Z,3.33
2023-04-26T10:02:27.641Z,2.47
2023-04-26T10:04:57.344Z,5.78
2023-04-26T10:07:25.567Z,2.30
2023-04-26T10:09:53.484Z,3.90
2023-04-26T10:12:20.774Z,1.75
2023-04-26T10:14:48.496Z,1.88
2023-04-26T10:17:15.184Z,5.22
2023-04-26T10:19:46.831Z,3.85
2023-04-26T10:22:20.917Z,2.50
2023-04-26T10:24:49.064Z,2.50
2023-04-26T10:27:16.255Z,1.92
2023-04-26T10:29:55.190Z,2.30
2023-04-26T10:32:22.703Z,3.08
2023-04-26T10:35:14.096Z,2.53
2023-04-26T10:37:59.891Z,1.88
2023-04-26T10:40:32.792Z,2.55
2023-04-26T10:43:20.660Z,2.08
2023-04-26T10:45:48.896Z,2.83
2023-04-26T10:48:21.232Z,2.30
2023-04-26T10:51:08.398Z,2.55
2023-04-26T10:53:47.203Z,2.25
2023-04-26T10:56:23.442Z,3.58
2023-04-26T10:59:22.490Z,3.65
2023-04-26T11:01:54.758Z,5.47
2023-04-26T11:04:22.443Z,4.72
2023-04-26T11:06:53.094Z,3.55
2023-04-26T11:09:39.805Z,7.70
2023-04-26T11:12:07.878Z,3.25
2023-04-26T11:14:35.499Z,10.32
2023-04-26T11:17:06.871Z,3.85
2023-04-26T11:19:33.985Z,5.35
2023-04-26T11:22:01.775Z,4.47
2023-04-26T11:24:32.079Z,5.72
2023-04-26T11:26:59.457Z,6.43
2023-04-26T11:29:27.034Z,4.45
2023-04-26T11:31:58.513Z,7.53
2023-04-26T11:34:35.269Z,4.78
2023-04-26T11:37:08.449Z,4.97
2023-04-26T11:39:38.232Z,5.97
2023-04-26T11:42:11.910Z,4.20
2023-04-26T11:44:40.852Z,7.90
2023-04-26T11:47:08.359Z,6.07
2023-04-26T11:49:37.626Z,4.38
2023-04-26T11:52:06.495Z,4.75
2023-04-26T11:54:35.861Z,6.03
2023-04-26T11:59:43.394Z,3.45
2023-04-26T12:02:13.000Z,3.72
2023-04-26T12:04:41.264Z,5.25
2023-04-26T12:07:08.701Z,4.23
2023-04-26T12:09:36.706Z,3.92
2023-04-26T12:12:07.490Z,4.45
2023-04-26T12:14:38.562Z,4.88
2023-04-26T12:17:06.820Z,2.90
2023-04-26T12:19:37.964Z,4.40
2023-04-26T12:22:06.954Z,4.22
2023-04-26T12:24:35.868Z,5.95
2023-04-26T12:27:06.102Z,4.15
2023-04-26T12:29:33.775Z,4.18
2023-04-26T12:32:01.743Z,3.10
2023-04-26T12:34:28.673Z,4.30
2023-04-26T12:36:55.884Z,5.07
2023-04-26T12:39:22.775Z,3.80
2023-04-26T12:41:49.469Z,2.67
2023-04-26T12:44:16.295Z,3.95
2023-04-26T12:46:43.328Z,4.22
2023-04-26T12:49:10.262Z,2.83
2023-04-26T12:51:36.983Z,3.67
2023-04-26T12:54:03.962Z,4.18
2023-04-26T12:56:30.824Z,3.03
2023-04-26T12:58:57.542Z,3.70
2023-04-26T13:01:24.414Z,4.22
2023-04-26T13:03:51.308Z,2.70
2023-04-26T13:06:21.249Z,4.07
2023-04-26T13:08:47.908Z,2.42
2023-04-26T13:11:14.782Z,3.97
2023-04-26T13:13:44.397Z,4.15
2023-04-26T13:16:13.023Z,3.28
2023-04-26T13:18:40.689Z,5.37
2023-04-26T13:21:07.897Z,2.20
2023-04-26T13:23:35.011Z,4.25
2023-04-26T13:26:01.779Z,4.70
2023-04-26T13:28:28.753Z,3.58
2023-04-26T13:30:56.106Z,3.60
2023-04-26T13:33:23.280Z,3.83
2023-04-26T13:35:49.943Z,4.70
2023-04-26T13:38:17.188Z,2.78
2023-04-26T13:40:44.205Z,2.90
2023-04-26T13:43:11.212Z,3.95
2023-04-26T13:45:37.826Z,3.40
2023-04-26T13:48:04.669Z,2.90
2023-04-26T13:50:31.422Z,2.90
2023-04-26T13:52:58.272Z,2.97
2023-04-26T13:55:25.756Z,3.92
2023-04-26T13:57:52.576Z,2.03
2023-04-26T14:00:19.588Z,3.60
2023-04-26T14:02:47.249Z,2.55
2023-04-26T14:05:14.394Z,2.53
2023-04-26T14:07:41.743Z,4.00
2023-04-26T14:10:09.409Z,3.38
2023-04-26T14:12:36.173Z,1.75
2023-04-26T14:15:04.416Z,2.47
2023-04-26T14:17:32.590Z,3.28
2023-04-26T14:19:59.493Z,4.78
2023-04-26T14:22:27.099Z,2.35
2023-04-26T14:24:53.837Z,3.95
2023-04-26T14:27:20.891Z,1.67
2023-04-26T14:29:47.576Z,2.38
2023-04-26T14:32:14.409Z,3.22
2023-04-26T14:34:42.012Z,3.25
2023-04-26T14:37:09.153Z,1.88
2023-04-26T14:39:36.012Z,2.65
2023-04-26T14:42:05.494Z,2.28
2023-04-26T14:46:58.778Z,3.30
2023-04-26T14:49:25.782Z,3.30
2023-04-26T14:51:53.644Z,2.35
2023-04-26T14:54:21.323Z,2.38
2023-04-26T14:56:48.908Z,3.80
2023-04-26T14:59:16.219Z,2.60
2023-04-26T15:01:43.163Z,2.20
2023-04-26T15:04:10.331Z,3.55
2023-04-26T15:06:37.217Z,2.38
2023-04-26T15:09:04.573Z,2.47
2023-04-26T15:11:31.338Z,1.98
2023-04-26T15:13:58.042Z,2.28
2023-04-26T15:16:24.720Z,3.92
2023-04-26T15:18:51.590Z,1.75
2023-04-26T15:21:19.512Z,3.38
2023-04-26T15:23:46.627Z,3.03
2023-04-26T15:26:13.820Z,3.60
2023-04-26T15:28:40.767Z,3.83
2023-04-26T15:31:11.586Z,3.78
2023-04-26T15:33:38.561Z,1.60
2023-04-26T15:36:05.765Z,2.05
2023-04-26T15:38:34.893Z,1.98
2023-04-26T15:41:01.606Z,2.97
2023-04-26T15:43:28.653Z,2.30
2023-04-26T15:45:55.427Z,2.45
2023-04-26T15:48:22.564Z,2.53
2023-04-26T15:50:50.675Z,1.90
2023-04-26T15:53:17.884Z,3.17
2023-04-26T15:55:44.797Z,1.50
2023-04-26T15:58:11.504Z,3.20
2023-04-26T16:00:38.198Z,3.78
2023-04-26T16:03:05.063Z,3.15
2023-04-26T16:05:32.073Z,2.15
2023-04-26T16:07:59.759Z,2.22
2023-04-26T16:10:27.053Z,2.90
2023-04-26T16:12:53.795Z,2.65
2023-04-26T16:15:20.678Z,2.78
2023-04-26T16:17:47.691Z,2.90
2023-04-26T16:20:15.178Z,2.35
2023-04-26T16:22:45.420Z,4.82
2023-04-26T16:25:16.367Z,4.07
2023-04-26T16:27:42.964Z,4.32
2023-04-26T16:30:09.905Z,2.88
2023-04-26T16:32:36.831Z,3.08
2023-04-26T16:35:03.531Z,3.33
2023-04-26T16:37:30.524Z,2.67
2023-04-26T16:39:57.305Z,1.83
2023-04-26T16:42:24.258Z,3.13
2023-04-26T16:44:51.112Z,2.65
2023-04-26T16:47:17.875Z,2.35
2023-04-26T16:49:44.603Z,3.20
2023-04-26T16:52:11.461Z,1.90
2023-04-26T16:54:38.316Z,3.53
2023-04-26T16:57:05.004Z,3.28
2023-04-26T16:59:31.846Z,2.80
2023-04-26T17:01:58.986Z,2.97
2023-04-26T17:04:26.415Z,4.43
2023-04-26T17:06:54.567Z,2.83
2023-04-26T17:09:21.397Z,2.45
2023-04-26T17:11:49.864Z,4.40
2023-04-26T17:14:16.648Z,3.43
2023-04-26T17:16:43.325Z,3.03
2023-04-26T17:19:10.244Z,2.47
2023-04-26T17:21:36.894Z,2.78
2023-04-26T17:24:03.762Z,2.90
2023-04-26T17:26:30.803Z,4.70
2023-04-26T17:28:57.468Z,3.30
2023-04-26T17:31:24.364Z,2.92
2023-04-26T17:33:51.231Z,3.17
2023-04-26T17:36:17.957Z,2.80
2023-04-26T17:38:44.626Z,2.92
2023-04-26T17:41:13.120Z,3.90
2023-04-26T17:43:40.378Z,3.33
2023-04-26T17:46:07.196Z,3.17
2023-04-26T17:48:33.804Z,4.82
2023-04-26T17:51:00.945Z,2.75
2023-04-26T17:53:27.870Z,2.33
2023-04-26T17:55:55.124Z,4.00
2023-04-26T17:58:21.950Z,2.97
2023-04-26T18:00:49.163Z,3.10
2023-04-26T18:03:16.330Z,4.20
2023-04-26T18:05:43.228Z,4.00
2023-04-26T18:08:09.903Z,5.10
2023-04-26T18:10:36.663Z,4.47
2023-04-26T18:13:03.480Z,3.92
2023-04-26T18:15:30.502Z,4.35
2023-04-26T18:17:57.241Z,2.85
2023-04-26T18:20:24.618Z,3.28
2023-04-26T18:22:51.792Z,4.82
2023-04-26T18:25:18.473Z,4.72
2023-04-26T18:27:46.733Z,3.85
2023-04-26T18:30:13.516Z,4.53
2023-04-26T18:32:40.193Z,3.97
2023-04-26T18:35:08.257Z,3.50
2023-04-26T18:37:35.201Z,4.18
2023-04-26T18:40:02.184Z,4.07
2023-04-26T18:42:28.992Z,3.78
2023-04-26T18:44:56.576Z,4.82
2023-04-26T18:47:23.504Z,5.43
2023-04-26T18:49:50.183Z,5.30
2023-04-26T18:52:16.926Z,3.70
2023-04-26T18:54:43.616Z,3.85
2023-04-26T18:57:10.763Z,4.47
2023-04-26T18:59:38.642Z,4.55
2023-04-26T19:02:05.557Z,4.03
2023-04-26T19:04:32.602Z,4.40
2023-04-26T19:07:00.758Z,5.78
2023-04-26T19:09:27.459Z,4.57
2023-04-26T19:11:54.123Z,4.85
2023-04-26T19:14:20.850Z,5.30
2023-04-26T19:16:47.624Z,4.68
2023-04-26T19:19:14.771Z,6.25
2023-04-26T19:21:41.515Z,5.03
2023-04-26T19:24:08.338Z,4.72
2023-04-26T19:26:37.285Z,4.80
2023-04-26T19:29:06.192Z,7.45
2023-04-26T19:31:33.926Z,5.30
2023-04-26T19:34:00.831Z,5.07
2023-04-26T19:36:27.543Z,6.55
2023-04-26T19:38:54.468Z,6.00
2023-04-26T19:41:21.510Z,6.03
2023-04-26T19:43:48.281Z,4.80
2023-04-26T19:46:15.419Z,4.90
2023-04-26T19:48:42.349Z,5.40
2023-04-26T19:51:15.066Z,4.65
2023-04-26T19:53:41.876Z,5.13
2023-04-26T19:56:11.017Z,5.53
2023-04-26T19:58:38.739Z,6.18
2023-04-26T20:01:05.805Z,5.10
2023-04-26T20:03:33.436Z,5.60
2023-04-26T20:06:00.514Z,5.90
2023-04-26T20:08:27.420Z,5.93
2023-04-26T20:10:54.514Z,5.50
2023-04-26T20:13:21.324Z,6.70
2023-04-26T20:15:48.192Z,6.47
2023-04-26T20:18:15.027Z,6.93
2023-04-26T20:20:41.614Z,6.35
2023-04-26T20:23:08.363Z,7.50
2023-04-26T20:25:34.984Z,6.50
2023-04-26T20:28:03.623Z,7.68
2023-04-26T20:30:33.952Z,7.17
2023-04-26T20:33:00.811Z,7.03
2023-04-26T20:35:27.599Z,6.30
2023-04-26T20:37:54.451Z,6.88
2023-04-26T20:40:24.090Z,7.20
2023-04-26T20:42:51.342Z,7.43
2023-04-26T20:45:18.117Z,7.82
2023-04-26T20:47:45.698Z,9.13
2023-04-26T20:50:12.783Z,8.25
2023-04-26T20:52:39.725Z,7.65
2023-04-26T20:55:07.182Z,7.65
2023-04-26T20:57:34.113Z,8.30
2023-04-26T21:00:01.089Z,7.72
2023-04-26T21:02:28.061Z,7.57
2023-04-26T21:04:55.122Z,8.20
2023-04-26T21:07:21.919Z,9.30
2023-04-26T21:09:49.294Z,8.38
2023-04-26T21:12:16.178Z,9.27
2023-04-26T21:14:45.759Z,8.15
2023-04-26T21:17:12.500Z,9.15
2023-04-26T21:19:39.428Z,7.43
2023-04-26T21:22:06.303Z,8.75
2023-04-26T21:24:32.962Z,9.35
2023-04-26T21:26:59.731Z,9.45
2023-04-26T21:29:26.391Z,6.57
2023-04-26T21:31:53.085Z,7.55
2023-04-26T21:34:20.301Z,7.32
2023-04-26T21:36:47.482Z,7.65
2023-04-26T21:39:14.604Z,7.95
2023-04-26T21:41:41.622Z,7.53
2023-04-26T21:44:08.441Z,7.25
2023-04-26T21:46:35.085Z,8.55
2023-04-26T21:49:01.779Z,7.65
2023-04-26T21:51:28.496Z,7.35
2023-04-26T21:53:55.290Z,7.00
2023-04-26T21:56:21.951Z,7.13
2023-04-26T21:58:48.686Z,7.57
2023-04-26T22:01:15.653Z,7.10
2023-04-26T22:03:42.837Z,7.07
2023-04-26T22:06:09.914Z,9.80
2023-04-26T22:08:36.767Z,7.85
2023-04-26T22:11:03.769Z,9.70
2023-04-26T22:13:31.360Z,9.38
2023-04-26T22:15:58.512Z,12.43
2023-04-26T22:18:26.430Z,8.75
2023-04-26T22:20:53.719Z,9.43
2023-04-26T22:23:20.440Z,10.30
2023-04-26T22:25:47.114Z,9.25
2023-04-26T22:28:13.778Z,8.48
2023-04-26T22:30:40.458Z,6.68
2023-04-26T22:33:07.385Z,7.93
2023-04-26T22:35:35.180Z,9.68
2023-04-26T22:38:01.990Z,7.68
2023-04-26T22:40:28.745Z,8.10
2023-04-26T22:42:55.618Z,6.30
2023-04-26T22:45:22.831Z,7.88
2023-04-26T22:47:49.695Z,5.75
2023-04-26T22:50:16.568Z,7.28
2023-04-26T22:52:43.231Z,8.57
2023-04-26T22:55:10.208Z,6.72
2023-04-26T22:57:39.959Z,6.38
2023-04-26T23:00:09.998Z,6.88
2023-04-26T23:02:37.133Z,7.38
2023-04-26T23:05:05.482Z,5.30
2023-04-26T23:07:33.526Z,9.85
2023-04-26T23:10:00.286Z,7.22
2023-04-26T23:12:27.719Z,6.95
2023-04-26T23:14:58.494Z,9.57
2023-04-26T23:17:26.685Z,8.93
2023-04-26T23:19:53.801Z,10.00
2023-04-26T23:22:20.939Z,9.73
2023-04-26T23:24:47.798Z,8.82
2023-04-26T23:27:14.607Z,10.30
2023-04-26T23:29:41.477Z,11.10
2023-04-26T23:32:08.161Z,11.20
2023-04-26T23:34:34.870Z,11.82
2023-04-26T23:37:06.791Z,9.25
2023-04-26T23:39:35.018Z,6.30
2023-04-26T23:42:02.271Z,8.13
2023-04-26T23:44:29.065Z,6.55
2023-04-26T23:46:55.849Z,8.88
2023-04-26T23:49:22.595Z,7.00
2023-04-26T23:51:49.231Z,7.97
2023-04-26T23:54:16.588Z,6.57
2023-04-26T23:56:43.433Z,6.82
2023-04-26T23:59:10.216Z,6.45
